Time;durP1;ratioP1;P1;durP2;ratioP2;P2;SDS_P1;SDS_P2;PMS_P1;PMS_P2;Temp;Humidity;BMP_temperature;BMP_pressure;BME280_temperature;BME280_humidity;BME280_pressure;Samples;Min_cycle;Max_cycle;Signal;HPM_P1;HPM_P2
2022/08/20 00:00:52;;;;;;;6.65;4.75;;;20.40;99.90;;;;;;5018067;28;20129;-62
2022/08/20 00:03:27;;;;;;;9.25;5.00;;;20.40;99.90;;;;;;5017902;28;20117;-63
2022/08/20 00:06:01;;;;;;;13.18;5.32;;;20.40;99.90;;;;;;5016957;28;20041;-62
2022/08/20 00:08:27;;;;;;;9.10;4.85;;;20.40;99.90;;;;;;5016929;28;20041;-62
2022/08/20 00:10:54;;;;;;;8.63;4.90;;;20.40;99.90;;;;;;5018011;28;20045;-63
2022/08/20 00:13:24;;;;;;;14.50;5.75;;;20.40;99.90;;;;;;5015764;28;20066;-62
2022/08/20 00:15:50;;;;;;;10.07;4.85;;;20.30;99.90;;;;;;5017999;28;20053;-62
2022/08/20 00:18:16;;;;;;;12.98;5.00;;;20.40;99.90;;;;;;5017409;28;20411;-62
2022/08/20 00:20:45;;;;;;;12.73;5.22;;;20.30;99.90;;;;;;5000522;28;20045;-63
2022/08/20 00:23:12;;;;;;;10.70;5.25;;;20.30;99.90;;;;;;5017750;28;20045;-62
2022/08/20 00:25:38;;;;;;;13.30;5.65;;;20.30;99.90;;;;;;5016494;28;20092;-63
2022/08/20 00:28:05;;;;;;;7.97;4.82;;;20.30;99.90;;;;;;5017499;28;20050;-63
2022/08/20 00:30:33;;;;;;;11.88;4.85;;;20.30;99.90;;;;;;5013223;28;20514;-63
2022/08/20 00:33:09;;;;;;;12.80;4.88;;;20.30;99.90;;;;;;5014121;28;20054;-63
2022/08/20 00:35:39;;;;;;;10.57;5.13;;;20.20;99.90;;;;;;5014439;28;20042;-63
2022/08/20 00:38:06;;;;;;;10.32;5.13;;;20.20;99.90;;;;;;4997618;28;20430;-62
2022/08/20 00:40:37;;;;;;;12.88;4.95;;;20.30;99.90;;;;;;5014286;28;20056;-62
2022/08/20 00:43:06;;;;;;;10.13;4.97;;;20.20;99.90;;;;;;5014449;28;20041;-62
2022/08/20 00:45:33;;;;;;;12.82;5.32;;;20.20;99.90;;;;;;5012516;28;20518;-63
2022/08/20 00:47:59;;;;;;;10.13;5.30;;;20.20;99.90;;;;;;4996842;28;20112;-63
2022/08/20 00:50:32;;;;;;;13.95;5.60;;;20.20;99.90;;;;;;4996435;28;20050;-62
2022/08/20 00:53:01;;;;;;;14.40;5.13;;;20.10;99.90;;;;;;5013168;28;20049;-62
2022/08/20 00:55:28;;;;;;;16.77;5.90;;;20.10;99.90;;;;;;5014040;28;20298;-62
2022/08/20 00:57:59;;;;;;;13.80;5.20;;;20.00;99.90;;;;;;5014151;28;20046;-62
2022/08/20 01:00:36;;;;;;;14.60;5.15;;;19.90;99.90;;;;;;5012873;28;20103;-62
2022/08/20 01:03:03;;;;;;;12.82;5.15;;;20.00;99.90;;;;;;5014035;28;20048;-63
2022/08/20 01:05:29;;;;;;;12.82;5.60;;;19.90;99.90;;;;;;5012716;28;20081;-63
2022/08/20 01:07:55;;;;;;;15.05;5.32;;;19.90;99.90;;;;;;5014025;28;20085;-63
2022/08/20 01:10:35;;;;;;;12.57;5.28;;;19.90;99.90;;;;;;4996325;28;20050;-63
2022/08/20 01:13:07;;;;;;;15.25;5.38;;;19.80;99.90;;;;;;5013796;28;20062;-63
2022/08/20 01:15:33;;;;;;;12.32;5.47;;;19.70;99.90;;;;;;5013527;28;20108;-62
2022/08/20 01:18:00;;;;;;;10.30;5.55;;;19.70;99.90;;;;;;5012571;28;20054;-63
2022/08/20 01:20:34;;;;;;;12.32;5.63;;;19.70;99.90;;;;;;5013452;28;20467;-62
2022/08/20 01:23:33;;;;;;;13.05;5.43;;;19.70;99.90;;;;;;5012548;28;20049;-63
2022/08/20 01:26:04;;;;;;;18.80;6.47;;;19.70;99.90;;;;;;5013812;28;20092;-63
2022/08/20 01:28:44;;;;;;;10.00;5.88;;;19.70;99.90;;;;;;5013453;28;20107;-63
2022/08/20 01:31:16;;;;;;;17.75;5.70;;;19.70;99.90;;;;;;5013481;28;20064;-63
2022/08/20 01:33:44;;;;;;;12.57;5.72;;;19.60;99.90;;;;;;5013603;28;20133;-63
2022/08/20 01:36:11;;;;;;;10.18;5.90;;;19.70;99.90;;;;;;5012473;28;20132;-63
2022/08/20 01:38:37;;;;;;;11.80;5.60;;;19.60;99.90;;;;;;5013202;28;20107;-62
2022/08/20 01:41:21;;;;;;;10.73;5.57;;;19.60;99.90;;;;;;5013145;28;20056;-62
2022/08/20 01:43:55;;;;;;;14.02;6.35;;;19.50;99.90;;;;;;5012057;28;20045;-63
2022/08/20 01:46:33;;;;;;;12.80;6.22;;;19.40;99.90;;;;;;5013459;28;20081;-62
2022/08/20 01:49:17;;;;;;;12.10;5.60;;;19.40;99.90;;;;;;5013332;28;20235;-63
2022/08/20 01:51:43;;;;;;;9.60;5.18;;;19.30;99.90;;;;;;5012974;28;20332;-62
2022/08/20 01:54:09;;;;;;;13.32;5.82;;;19.30;99.90;;;;;;5012216;28;20521;-62
2022/08/20 01:56:59;;;;;;;12.50;5.55;;;19.20;99.90;;;;;;5013148;28;20360;-62
2022/08/20 01:59:25;;;;;;;11.70;6.03;;;19.20;99.90;;;;;;5011850;28;20038;-65
2022/08/20 02:01:52;;;;;;;15.57;5.97;;;19.20;99.90;;;;;;5011615;28;20133;-63
2022/08/20 02:04:19;;;;;;;14.88;5.47;;;19.20;99.90;;;;;;5013020;28;20053;-62
2022/08/20 02:06:50;;;;;;;10.95;5.05;;;19.20;99.90;;;;;;5012694;28;20203;-62
2022/08/20 02:09:16;;;;;;;11.68;5.65;;;19.20;99.90;;;;;;5011703;28;20057;-63
2022/08/20 02:11:42;;;;;;;9.73;5.47;;;19.20;99.90;;;;;;5012448;28;20038;-64
2022/08/20 02:14:10;;;;;;;11.30;5.18;;;19.20;99.90;;;;;;5012631;28;20062;-63
2022/08/20 02:16:38;;;;;;;13.50;5.50;;;19.20;99.90;;;;;;5011242;28;20058;-62
2022/08/20 02:19:22;;;;;;;11.57;5.88;;;19.20;99.90;;;;;;5012784;28;20054;-62
2022/08/20 02:21:53;;;;;;;7.88;5.32;;;19.10;99.90;;;;;;5011144;28;20041;-63
2022/08/20 02:24:19;;;;;;;10.60;5.72;;;19.00;99.90;;;;;;5012895;28;20050;-65
2022/08/20 02:26:46;;;;;;;10.55;5.60;;;18.90;99.90;;;;;;5012377;28;20085;-63
2022/08/20 02:29:12;;;;;;;9.48;5.10;;;18.90;99.90;;;;;;5011675;28;20097;-63
2022/08/20 02:31:43;;;;;;;11.45;4.80;;;18.90;99.90;;;;;;5011257;28;20448;-63
2022/08/20 02:34:12;;;;;;;11.98;6.05;;;18.90;99.90;;;;;;5012638;28;20085;-64
2022/08/20 02:36:38;;;;;;;12.80;5.75;;;18.80;99.90;;;;;;5012131;28;20427;-63
2022/08/20 02:39:07;;;;;;;10.88;5.68;;;18.70;99.90;;;;;;5011351;28;20050;-63
2022/08/20 02:41:34;;;;;;;11.93;5.80;;;18.70;99.90;;;;;;5012466;28;20045;-63
2022/08/20 02:44:00;;;;;;;12.55;5.85;;;18.60;99.90;;;;;;5011111;28;20399;-63
2022/08/20 02:46:27;;;;;;;11.93;5.95;;;18.60;99.90;;;;;;5012316;28;20088;-63
2022/08/20 02:48:54;;;;;;;12.13;5.85;;;18.60;99.90;;;;;;5011957;28;20049;-64
2022/08/20 02:51:20;;;;;;;11.80;5.80;;;18.60;99.90;;;;;;5012146;28;20049;-63
2022/08/20 02:53:46;;;;;;;11.65;6.00;;;18.50;99.90;;;;;;5011457;28;20452;-63
2022/08/20 02:56:12;;;;;;;11.57;5.28;;;18.50;99.90;;;;;;5010921;28;20128;-63
2022/08/20 02:58:39;;;;;;;16.83;5.65;;;18.40;99.90;;;;;;5011631;28;20046;-63
2022/08/20 03:01:08;;;;;;;11.07;5.55;;;18.40;99.90;;;;;;5011053;28;20052;-63
2022/08/20 03:03:34;;;;;;;10.15;5.25;;;18.30;99.90;;;;;;5011862;28;20045;-62
2022/08/20 03:06:00;;;;;;;15.10;5.85;;;18.30;99.90;;;;;;5010947;28;20099;-63
2022/08/20 03:08:28;;;;;;;11.25;5.57;;;18.20;99.90;;;;;;5012152;28;20125;-63
2022/08/20 03:10:54;;;;;;;9.75;4.72;;;18.10;99.90;;;;;;5011695;28;20046;-65
2022/08/20 03:13:21;;;;;;;14.38;5.55;;;18.10;99.90;;;;;;5011849;28;20458;-63
2022/08/20 03:15:53;;;;;;;10.90;5.32;;;18.00;99.90;;;;;;5010403;28;20084;-63
2022/08/20 03:18:20;;;;;;;15.80;5.22;;;18.00;99.90;;;;;;5011840;28;20041;-63
2022/08/20 03:20:46;;;;;;;9.70;4.50;;;18.00;99.90;;;;;;5010510;28;20077;-62
2022/08/20 03:23:13;;;;;;;15.15;4.78;;;18.00;99.90;;;;;;5010629;28;20053;-62
2022/08/20 03:25:38;;;;;;;15.02;4.75;;;18.00;99.90;;;;;;5011554;28;20068;-62
2022/08/20 03:28:04;;;;;;;13.70;4.70;;;18.00;99.90;;;;;;5011869;28;20471;-63
2022/08/20 03:30:31;;;;;;;11.13;3.95;;;18.00;99.90;;;;;;5010839;28;20058;-62
2022/08/20 03:32:57;;;;;;;11.20;3.95;;;18.00;99.90;;;;;;5011462;28;20160;-62
2022/08/20 03:35:25;;;;;;;12.05;3.97;;;18.00;99.90;;;;;;5011829;28;20081;-63
2022/08/20 03:37:51;;;;;;;11.98;4.00;;;18.10;99.90;;;;;;5011482;28;20053;-63
2022/08/20 03:40:29;;;;;;;8.98;3.60;;;18.10;99.90;;;;;;5010528;28;20053;-64
2022/08/20 03:42:54;;;;;;;8.52;3.53;;;18.10;99.90;;;;;;5011420;28;20045;-63
2022/08/20 03:45:22;;;;;;;10.27;3.40;;;18.10;99.90;;;;;;5011695;28;20052;-62
2022/08/20 03:47:50;;;;;;;9.80;3.45;;;18.00;99.90;;;;;;5010350;28;20050;-63
2022/08/20 03:50:19;;;;;;;10.35;3.65;;;18.00;99.90;;;;;;5010715;28;20479;-64
2022/08/20 03:52:44;;;;;;;9.40;3.17;;;18.00;99.90;;;;;;5010109;28;20125;-65
2022/08/20 03:55:11;;;;;;;9.80;3.03;;;18.10;99.90;;;;;;5010612;28;20153;-62
2022/08/20 03:57:44;;;;;;;11.13;3.08;;;18.10;99.90;;;;;;4994328;28;20399;-63
2022/08/20 04:00:12;;;;;;;11.97;3.33;;;18.10;99.90;;;;;;5011319;28;20045;-63
2022/08/20 04:02:38;;;;;;;9.02;3.15;;;18.20;99.90;;;;;;5011452;28;20534;-62
2022/08/20 04:05:04;;;;;;;13.95;2.97;;;18.20;99.90;;;;;;5014792;28;20120;-63
2022/08/20 04:07:30;;;;;;;11.77;2.97;;;18.10;99.90;;;;;;4997775;28;20096;-62
2022/08/20 04:09:56;;;;;;;12.27;3.10;;;18.20;99.90;;;;;;5014867;28;20101;-63
2022/08/20 04:12:24;;;;;;;9.98;3.30;;;18.20;99.90;;;;;;5015141;28;20141;-63
2022/08/20 04:14:50;;;;;;;9.10;2.78;;;18.10;99.90;;;;;;5014803;28;20073;-62
2022/08/20 04:17:19;;;;;;;9.30;2.50;;;18.10;99.90;;;;;;5015134;28;20041;-63
2022/08/20 04:19:46;;;;;;;12.52;2.92;;;18.10;99.90;;;;;;5014715;28;20048;-64
2022/08/20 04:22:15;;;;;;;13.40;3.08;;;18.10;99.90;;;;;;5013756;28;20053;-62
2022/08/20 04:24:41;;;;;;;7.18;2.55;;;18.10;99.90;;;;;;4997598;28;20050;-63
2022/08/20 04:27:08;;;;;;;9.48;2.80;;;18.10;99.90;;;;;;5013460;28;20050;-63
2022/08/20 04:29:35;;;;;;;10.15;2.67;;;18.00;99.90;;;;;;5014811;28;20141;-63
2022/08/20 04:32:05;;;;;;;9.60;2.70;;;18.00;99.90;;;;;;5013189;28;20056;-62
2022/08/20 04:34:31;;;;;;;8.27;2.53;;;18.00;99.90;;;;;;5013596;28;20053;-63
2022/08/20 04:36:57;;;;;;;16.40;3.10;;;18.00;99.90;;;;;;5014295;28;20104;-64
2022/08/20 04:39:22;;;;;;;9.15;2.80;;;18.00;99.90;;;;;;5013532;28;20472;-62
2022/08/20 04:41:48;;;;;;;14.25;3.17;;;18.00;99.90;;;;;;5014222;28;20510;-62
2022/08/20 04:44:14;;;;;;;10.82;2.42;;;18.00;99.90;;;;;;5013347;28;20178;-62
2022/08/20 04:46:41;;;;;;;8.95;2.72;;;18.00;99.90;;;;;;5014551;28;20061;-62
2022/08/20 04:49:07;;;;;;;11.82;2.80;;;18.00;99.90;;;;;;5012881;28;20484;-61
2022/08/20 04:51:33;;;;;;;10.23;2.60;;;18.10;99.90;;;;;;5014387;28;20053;-62
2022/08/20 04:54:01;;;;;;;12.05;3.05;;;18.10;99.90;;;;;;5013783;28;20487;-62
2022/08/20 04:56:29;;;;;;;10.48;2.67;;;18.10;99.90;;;;;;5013223;28;20089;-63
2022/08/20 04:58:58;;;;;;;9.75;3.05;;;18.10;99.90;;;;;;5012909;28;20046;-62
2022/08/20 05:01:24;;;;;;;12.15;2.92;;;18.10;99.90;;;;;;5012864;28;20519;-62
2022/08/20 05:03:54;;;;;;;8.48;2.50;;;18.10;99.90;;;;;;5013831;28;20411;-63
2022/08/20 05:06:23;;;;;;;12.48;2.70;;;18.20;99.90;;;;;;5013066;28;20052;-62
2022/08/20 05:08:49;;;;;;;7.32;2.35;;;18.20;99.90;;;;;;5013594;28;20448;-64
2022/08/20 05:11:14;;;;;;;8.07;2.90;;;18.20;99.90;;;;;;5012756;28;20100;-62
2022/08/20 05:13:41;;;;;;;10.85;2.45;;;18.10;99.90;;;;;;4996060;28;20050;-61
2022/08/20 05:16:07;;;;;;;10.07;3.05;;;18.20;99.90;;;;;;5011342;28;20180;-61
2022/08/20 05:18:33;;;;;;;11.60;3.15;;;18.20;99.90;;;;;;5012784;28;20566;-63
2022/08/20 05:21:04;;;;;;;8.93;2.40;;;18.20;99.90;;;;;;5013452;28;20053;-62
2022/08/20 05:23:32;;;;;;;9.68;2.35;;;18.20;99.90;;;;;;5012754;28;20494;-63
2022/08/20 05:25:58;;;;;;;9.25;2.70;;;18.20;99.90;;;;;;5013397;28;20425;-62
2022/08/20 05:28:31;;;;;;;8.15;2.40;;;18.30;99.90;;;;;;4996057;28;20058;-62
2022/08/20 05:30:58;;;;;;;9.55;2.10;;;18.30;99.90;;;;;;5013044;28;20495;-61
2022/08/20 05:33:24;;;;;;;7.90;2.25;;;18.30;99.90;;;;;;4996053;28;20396;-63
2022/08/20 05:35:52;;;;;;;8.57;2.65;;;18.30;99.90;;;;;;5013646;28;20429;-63
2022/08/20 05:38:21;;;;;;;6.28;2.10;;;18.30;99.90;;;;;;5012432;28;20096;-63
2022/08/20 05:40:47;;;;;;;9.38;2.47;;;18.30;99.90;;;;;;5012237;28;20399;-64
2022/08/20 05:43:14;;;;;;;9.15;2.13;;;18.40;99.90;;;;;;5011839;28;20034;-62
2022/08/20 05:45:41;;;;;;;10.52;2.45;;;18.50;99.90;;;;;;5012268;28;20063;-62
2022/08/20 05:48:12;;;;;;;9.02;2.45;;;18.70;99.90;;;;;;5011752;28;20493;-63
2022/08/20 05:50:41;;;;;;;11.70;2.42;;;19.00;99.90;;;;;;5013281;28;20049;-63
2022/08/20 05:53:06;;;;;;;8.88;2.42;;;19.50;99.90;;;;;;5012800;28;20106;-62
2022/08/20 05:55:33;;;;;;;5.53;1.90;;;20.10;99.90;;;;;;5013249;28;20129;-62
2022/08/20 05:58:01;;;;;;;6.88;2.30;;;20.80;99.90;;;;;;5011942;28;20057;-63
2022/08/20 06:00:28;;;;;;;8.52;2.33;;;21.50;99.90;;;;;;5013035;28;20064;-63
2022/08/20 06:05:39;;;;;;;9.27;2.03;;;22.80;99.90;;;;;;5013043;28;20069;-62
2022/08/20 06:08:06;;;;;;;6.35;2.10;;;23.60;99.90;;;;;;5012495;28;20058;-62
2022/08/20 06:10:32;;;;;;;6.32;2.08;;;24.30;99.90;;;;;;5012905;28;20072;-62
2022/08/20 06:12:58;;;;;;;6.75;1.92;;;25.10;99.90;;;;;;5012118;28;20058;-62
2022/08/20 06:15:24;;;;;;;7.68;2.28;;;25.60;98.80;;;;;;5012937;28;20134;-62
2022/08/20 06:17:50;;;;;;;8.25;2.05;;;26.20;97.60;;;;;;5012901;28;20479;-64
2022/08/20 06:20:15;;;;;;;6.90;2.10;;;26.60;96.40;;;;;;5012655;28;20586;-63
2022/08/20 06:22:41;;;;;;;6.72;2.03;;;27.10;96.40;;;;;;5012812;28;20125;-63
2022/08/20 06:25:08;;;;;;;6.45;2.03;;;27.40;94.90;;;;;;5011181;28;20053;-63
2022/08/20 06:27:37;;;;;;;7.60;2.05;;;27.80;94.20;;;;;;4994621;28;20507;-63
2022/08/20 06:30:03;;;;;;;6.22;1.88;;;28.30;94.00;;;;;;5012346;28;20046;-64
2022/08/20 06:32:29;;;;;;;6.25;1.63;;;28.50;93.00;;;;;;5012448;28;20046;-65
2022/08/20 06:34:55;;;;;;;5.22;1.83;;;28.80;92.90;;;;;;5011485;28;20365;-64
2022/08/20 06:37:24;;;;;;;7.28;1.80;;;29.10;92.50;;;;;;5011183;28;20136;-62
2022/08/20 06:39:51;;;;;;;8.50;1.77;;;29.40;91.20;;;;;;5012449;28;20137;-63
2022/08/20 06:42:18;;;;;;;8.63;1.67;;;29.50;90.60;;;;;;5011201;28;20403;-63
2022/08/20 06:44:48;;;;;;;7.18;1.92;;;29.30;90.90;;;;;;5011265;28;20100;-63
2022/08/20 06:47:18;;;;;;;3.80;1.45;;;29.30;90.30;;;;;;5011088;28;20541;-63
2022/08/20 06:49:44;;;;;;;8.35;2.05;;;29.10;90.30;;;;;;5012479;28;20060;-64
2022/08/20 06:52:09;;;;;;;6.18;1.73;;;28.90;89.50;;;;;;5011820;28;20129;-63
2022/08/20 06:54:35;;;;;;;7.90;1.88;;;28.80;90.30;;;;;;5012026;28;20045;-63
2022/08/20 06:57:02;;;;;;;5.53;1.80;;;28.80;90.30;;;;;;5010938;28;20045;-67
2022/08/20 06:59:28;;;;;;;4.65;1.70;;;28.90;90.50;;;;;;5011129;28;20111;-64
2022/08/20 07:01:55;;;;;;;7.10;2.00;;;28.80;88.50;;;;;;5011963;28;20088;-63
2022/08/20 07:04:25;;;;;;;4.30;1.50;;;28.20;90.00;;;;;;5011732;28;20056;-63
2022/08/20 07:06:56;;;;;;;5.72;1.70;;;27.90;90.30;;;;;;5012020;28;20443;-64
2022/08/20 07:09:23;;;;;;;5.30;1.48;;;27.80;90.10;;;;;;5011951;28;20122;-63
2022/08/20 07:11:49;;;;;;;6.28;1.80;;;27.90;90.40;;;;;;5012004;28;20450;-62
2022/08/20 07:14:17;;;;;;;5.70;2.05;;;28.20;90.80;;;;;;5011297;28;20061;-63
2022/08/20 07:16:43;;;;;;;6.63;1.67;;;28.60;89.80;;;;;;5010873;28;20545;-63
2022/08/20 07:19:09;;;;;;;5.35;1.80;;;28.50;89.20;;;;;;5011746;28;20050;-63
2022/08/20 07:21:35;;;;;;;6.75;1.67;;;28.20;89.20;;;;;;5011038;28;20403;-64
2022/08/20 07:24:02;;;;;;;5.55;1.70;;;28.10;89.00;;;;;;5011686;28;20509;-63
2022/08/20 07:26:28;;;;;;;5.47;1.60;;;28.00;89.20;;;;;;5011605;28;20076;-64
2022/08/20 07:28:54;;;;;;;5.00;1.60;;;27.60;90.30;;;;;;5010729;28;20145;-63
2022/08/20 07:34:05;;;;;;;5.95;1.58;;;26.90;90.30;;;;;;5010877;28;20360;-63
2022/08/20 07:36:32;;;;;;;6.75;1.90;;;26.70;90.30;;;;;;5011704;28;20181;-62
2022/08/20 07:38:57;;;;;;;6.32;1.98;;;26.60;90.70;;;;;;5013592;28;20046;-63
2022/08/20 07:41:23;;;;;;;6.75;2.15;;;26.90;90.50;;;;;;5014275;28;20475;-63
2022/08/20 07:43:49;;;;;;;4.68;1.60;;;27.70;89.70;;;;;;5015652;28;20068;-64
2022/08/20 07:46:20;;;;;;;7.85;1.65;;;27.90;89.70;;;;;;5013836;28;20590;-62
2022/08/20 07:48:48;;;;;;;5.38;1.70;;;27.60;89.10;;;;;;5015421;28;20483;-62
2022/08/20 07:51:16;;;;;;;5.43;1.83;;;27.30;90.10;;;;;;5015101;28;20499;-64
2022/08/20 07:53:44;;;;;;;4.43;1.40;;;26.70;89.40;;;;;;5015677;28;20049;-63
2022/08/20 07:56:13;;;;;;;6.97;1.50;;;26.50;90.40;;;;;;5014094;28;20092;-63
2022/08/20 07:58:48;;;;;;;6.30;1.75;;;26.80;90.50;;;;;;5014314;28;20096;-62
2022/08/20 08:01:18;;;;;;;5.55;1.80;;;27.00;89.20;;;;;;5015495;28;20128;-63
2022/08/20 08:03:44;;;;;;;4.15;1.42;;;27.20;90.00;;;;;;5015350;28;20045;-63
2022/08/20 08:06:11;;;;;;;7.75;1.67;;;28.00;89.90;;;;;;5015042;28;20075;-63
2022/08/20 08:08:38;;;;;;;5.63;1.83;;;29.00;88.50;;;;;;5014126;28;20092;-63
2022/08/20 08:11:04;;;;;;;5.47;1.58;;;29.90;87.50;;;;;;5015183;28;20045;-63
2022/08/20 08:13:34;;;;;;;4.90;1.80;;;31.00;86.00;;;;;;5014585;28;20054;-64
2022/08/20 08:16:01;;;;;;;4.85;1.65;;;31.70;83.10;;;;;;5015493;28;20162;-68
2022/08/20 08:18:38;;;;;;;6.13;1.67;;;32.00;81.40;;;;;;4981839;28;20056;-64
2022/08/20 08:21:06;;;;;;;7.78;2.42;;;32.30;81.20;;;;;;5015296;28;20064;-64
2022/08/20 08:23:33;;;;;;;5.15;1.50;;;32.40;82.10;;;;;;5014829;28;20099;-65
2022/08/20 08:25:59;;;;;;;5.15;1.73;;;32.80;79.20;;;;;;5014218;28;20099;-66
2022/08/20 08:28:27;;;;;;;6.65;1.70;;;33.30;79.60;;;;;;4981137;28;20415;-62
2022/08/20 08:30:52;;;;;;;4.95;1.35;;;33.60;78.20;;;;;;5013856;28;20054;-61
2022/08/20 08:33:30;;;;;;;6.53;1.80;;;33.90;77.00;;;;;;5014479;28;20121;-60
2022/08/20 08:36:02;;;;;;;6.80;1.90;;;33.60;77.20;;;;;;5014633;28;20057;-61
2022/08/20 08:38:30;;;;;;;5.22;1.58;;;33.70;76.50;;;;;;5014308;28;20521;-61
2022/08/20 08:41:02;;;;;;;4.57;1.75;;;34.10;76.70;;;;;;5014749;28;20046;-60
2022/08/20 08:43:28;;;;;;;5.57;1.95;;;33.70;76.40;;;;;;5014612;28;20046;-62
2022/08/20 08:46:02;;;;;;;5.50;1.80;;;33.30;76.70;;;;;;5014625;28;20045;-60
2022/08/20 08:48:41;;;;;;;5.78;2.00;;;33.50;75.20;;;;;;5014112;28;20392;-60
2022/08/20 08:51:11;;;;;;;6.85;1.67;;;33.40;75.10;;;;;;5013528;28;20128;-60
2022/08/20 08:53:52;;;;;;;4.70;1.58;;;32.80;76.20;;;;;;5014037;28;20078;-61
2022/08/20 08:56:19;;;;;;;4.95;1.60;;;32.80;76.30;;;;;;5014058;28;20049;-65
2022/08/20 08:58:45;;;;;;;5.18;2.00;;;32.50;76.20;;;;;;5013971;28;20501;-60
2022/08/20 09:01:15;;;;;;;5.95;1.70;;;32.10;76.00;;;;;;5013170;28;20046;-60
2022/08/20 09:03:44;;;;;;;4.13;1.63;;;31.70;75.70;;;;;;5013076;28;20129;-60
2022/08/20 09:06:19;;;;;;;6.47;1.58;;;32.10;76.10;;;;;;5014299;28;20052;-60
2022/08/20 09:08:59;;;;;;;3.40;1.48;;;32.10;75.60;;;;;;5013244;28;20080;-60
2022/08/20 09:11:26;;;;;;;5.50;1.63;;;32.50;75.60;;;;;;5013789;28;20132;-60
2022/08/20 09:13:53;;;;;;;4.68;1.50;;;32.50;74.40;;;;;;5014158;28;20502;-60
2022/08/20 09:16:24;;;;;;;5.10;1.52;;;31.90;74.90;;;;;;5013790;28;20048;-60
2022/08/20 09:18:50;;;;;;;3.90;1.52;;;31.90;74.80;;;;;;5014191;28;20414;-60
2022/08/20 09:21:16;;;;;;;4.35;1.35;;;32.40;74.00;;;;;;5014118;28;20046;-61
2022/08/20 09:23:42;;;;;;;6.10;1.67;;;32.70;72.60;;;;;;5012639;28;20045;-62
2022/08/20 09:26:08;;;;;;;11.30;1.80;;;32.80;72.70;;;;;;5012830;28;20141;-60
2022/08/20 09:28:34;;;;;;;7.57;1.63;;;33.10;73.60;;;;;;5012470;28;20383;-60
2022/08/20 09:31:02;;;;;;;4.82;1.80;;;32.60;72.60;;;;;;5014108;28;20136;-61
2022/08/20 09:33:27;;;;;;;5.03;1.52;;;31.30;74.10;;;;;;5012171;28;20076;-60
2022/08/20 09:35:53;;;;;;;8.05;1.80;;;30.40;75.00;;;;;;5013695;28;20050;-60
2022/08/20 09:38:19;;;;;;;6.30;1.70;;;29.50;76.60;;;;;;5012303;28;20129;-60
2022/08/20 09:40:44;;;;;;;5.72;1.67;;;29.30;76.80;;;;;;4996004;28;20050;-59
2022/08/20 09:43:10;;;;;;;7.63;1.60;;;29.40;77.30;;;;;;5012425;28;20042;-60
2022/08/20 09:45:36;;;;;;;6.25;1.83;;;29.50;76.60;;;;;;5013269;28;20042;-60
2022/08/20 09:48:02;;;;;;;6.82;1.98;;;29.80;76.20;;;;;;5013556;28;20594;-60
2022/08/20 09:50:30;;;;;;;6.72;1.85;;;29.80;75.70;;;;;;5013145;28;20430;-60
2022/08/20 09:52:58;;;;;;;7.05;2.17;;;29.50;76.50;;;;;;5012185;28;20395;-60
2022/08/20 09:55:34;;;;;;;7.97;2.13;;;29.30;76.90;;;;;;5013125;28;20089;-60
2022/08/20 09:58:04;;;;;;;6.35;1.67;;;29.10;77.60;;;;;;5012362;28;20056;-60
2022/08/20 10:00:30;;;;;;;6.03;1.77;;;29.10;78.80;;;;;;5012938;28;20436;-59
2022/08/20 10:02:56;;;;;;;7.07;1.80;;;29.10;78.20;;;;;;5011768;28;20050;-59
2022/08/20 10:05:22;;;;;;;6.88;1.70;;;29.00;77.30;;;;;;5011654;28;20053;-59
2022/08/20 10:07:48;;;;;;;6.10;1.80;;;28.80;78.60;;;;;;5011276;28;20053;-59
2022/08/20 10:10:14;;;;;;;8.02;2.13;;;28.60;77.90;;;;;;5012652;28;20089;-59
2022/08/20 10:12:45;;;;;;;7.38;2.20;;;28.30;79.20;;;;;;5012423;28;20058;-60
2022/08/20 10:15:11;;;;;;;6.45;1.98;;;28.20;78.20;;;;;;5012996;28;20060;-60
2022/08/20 10:17:42;;;;;;;9.77;2.15;;;28.20;77.80;;;;;;5012521;28;20050;-60
2022/08/20 10:20:10;;;;;;;6.70;1.88;;;28.10;78.80;;;;;;5012803;28;20049;-60
2022/08/20 10:22:36;;;;;;;4.40;1.63;;;27.90;79.90;;;;;;5012471;28;20434;-60
2022/08/20 10:25:03;;;;;;;5.40;1.75;;;27.90;78.90;;;;;;5012798;28;20092;-59
2022/08/20 10:27:28;;;;;;;7.90;1.98;;;27.90;78.50;;;;;;5012276;28;20053;-59
2022/08/20 10:29:54;;;;;;;8.27;1.88;;;27.90;79.60;;;;;;5012318;28;20050;-59
2022/08/20 10:32:20;;;;;;;5.65;1.77;;;27.90;79.00;;;;;;5011367;28;20042;-60
2022/08/20 10:34:45;;;;;;;3.90;1.40;;;28.00;78.40;;;;;;5011155;28;20145;-59
2022/08/20 10:37:18;;;;;;;6.15;1.80;;;28.20;77.60;;;;;;5012604;28;20046;-60
2022/08/20 10:39:44;;;;;;;7.20;1.98;;;28.10;76.70;;;;;;5011963;28;20519;-59
2022/08/20 10:42:10;;;;;;;6.70;1.63;;;28.10;74.40;;;;;;5011618;28;20128;-59
2022/08/20 10:44:36;;;;;;;5.78;1.80;;;28.10;74.70;;;;;;5011030;28;20056;-60
2022/08/20 10:47:25;;;;;;;8.07;2.03;;;28.10;76.00;;;;;;5011467;28;20050;-60
2022/08/20 10:49:53;;;;;;;7.90;2.13;;;28.00;79.10;;;;;;5012217;28;20049;-59
2022/08/20 10:52:19;;;;;;;5.35;1.90;;;27.80;80.00;;;;;;5012289;28;20091;-59
2022/08/20 10:54:45;;;;;;;7.38;1.90;;;27.60;79.90;;;;;;5012106;28;20053;-60
2022/08/20 10:57:17;;;;;;;6.57;2.10;;;27.40;80.90;;;;;;5012324;28;20049;-60
2022/08/20 10:59:45;;;;;;;7.60;2.28;;;27.10;80.60;;;;;;5011732;28;20508;-60
2022/08/20 11:02:11;;;;;;;7.00;2.17;;;27.00;81.10;;;;;;5012269;28;20046;-60
2022/08/20 11:04:39;;;;;;;9.30;2.20;;;27.10;82.00;;;;;;5010674;28;20582;-62
2022/08/20 11:07:28;;;;;;;7.30;2.40;;;27.00;80.00;;;;;;5012301;28;20061;-60
2022/08/20 11:09:54;;;;;;;5.93;1.95;;;26.90;80.50;;;;;;5011556;28;20519;-61
2022/08/20 11:12:21;;;;;;;8.63;1.90;;;26.90;79.80;;;;;;5011660;28;20495;-60
2022/08/20 11:14:48;;;;;;;10.10;2.28;;;26.70;79.60;;;;;;5011411;28;20049;-60
2022/08/20 11:17:23;;;;;;;6.28;1.98;;;26.60;80.20;;;;;;5012485;28;20085;-60
2022/08/20 11:19:49;;;;;;;9.88;2.50;;;26.60;81.30;;;;;;5011753;28;20054;-59
2022/08/20 11:22:15;;;;;;;4.90;2.15;;;26.80;81.20;;;;;;5011958;28;20340;-61
2022/08/20 11:24:41;;;;;;;8.15;2.17;;;27.10;80.90;;;;;;5011720;28;20430;-60
2022/08/20 11:27:08;;;;;;;6.43;1.90;;;27.20;80.60;;;;;;5011929;28;20084;-60
2022/08/20 11:29:37;;;;;;;9.38;2.22;;;27.20;80.50;;;;;;5010677;28;20054;-64
2022/08/20 11:32:04;;;;;;;8.45;2.20;;;26.80;80.30;;;;;;5011692;28;20042;-60
2022/08/20 11:34:30;;;;;;;5.00;2.10;;;26.70;80.30;;;;;;5011965;28;20128;-60
2022/08/20 11:36:57;;;;;;;6.95;2.13;;;26.70;79.40;;;;;;5011677;28;20124;-60
2022/08/20 11:39:24;;;;;;;10.23;2.05;;;26.90;78.50;;;;;;5011939;28;20128;-60
2022/08/20 11:41:50;;;;;;;8.32;2.15;;;27.10;78.40;;;;;;5011632;28;20057;-60
2022/08/20 11:44:15;;;;;;;8.57;2.22;;;27.30;79.30;;;;;;5011760;28;20038;-60
2022/08/20 11:46:41;;;;;;;7.00;2.05;;;27.50;79.10;;;;;;5011534;28;20054;-61
2022/08/20 11:49:07;;;;;;;5.40;1.88;;;27.60;78.60;;;;;;5011780;28;20073;-61
2022/08/20 11:51:32;;;;;;;5.47;2.10;;;27.70;78.60;;;;;;5011692;28;20522;-60
2022/08/20 11:53:59;;;;;;;8.05;2.38;;;27.70;79.50;;;;;;5011476;28;20088;-60
2022/08/20 11:56:24;;;;;;;6.40;2.13;;;27.30;80.00;;;;;;5010544;28;20046;-60
2022/08/20 11:58:50;;;;;;;9.13;2.10;;;27.10;79.60;;;;;;5011347;28;20038;-61
2022/08/20 12:01:16;;;;;;;5.53;1.90;;;26.90;79.30;;;;;;5011698;28;20073;-60
2022/08/20 12:03:42;;;;;;;8.18;1.88;;;26.80;79.50;;;;;;5011325;28;20172;-60
2022/08/20 12:06:07;;;;;;;9.25;2.40;;;27.00;79.60;;;;;;5010347;28;20172;-59
2022/08/20 12:08:33;;;;;;;7.07;2.00;;;27.10;79.60;;;;;;5011404;28;20049;-60
2022/08/20 12:11:01;;;;;;;7.68;2.10;;;27.20;79.00;;;;;;5010125;28;20056;-59
2022/08/20 12:13:29;;;;;;;5.80;1.90;;;27.30;78.60;;;;;;5010898;28;20045;-60
2022/08/20 12:15:55;;;;;;;6.10;2.10;;;27.30;78.40;;;;;;5011543;28;20149;-59
2022/08/20 12:18:21;;;;;;;5.30;1.95;;;27.20;78.70;;;;;;5010427;28;20076;-59
2022/08/20 12:20:46;;;;;;;8.23;2.10;;;26.90;78.40;;;;;;5011181;28;20045;-59
2022/08/20 12:23:12;;;;;;;6.63;1.90;;;26.80;78.80;;;;;;5010469;28;20053;-59
2022/08/20 12:25:38;;;;;;;5.38;1.77;;;26.80;78.50;;;;;;5014046;28;20085;-59
2022/08/20 12:28:04;;;;;;;8.02;2.13;;;26.90;78.40;;;;;;5014769;28;20470;-59
2022/08/20 12:30:31;;;;;;;8.35;2.28;;;27.00;76.90;;;;;;5015053;28;20050;-60
2022/08/20 12:32:58;;;;;;;6.43;2.25;;;27.10;77.50;;;;;;5014562;28;20096;-60
2022/08/20 12:35:24;;;;;;;8.05;2.00;;;27.20;78.30;;;;;;5014973;28;20380;-60
2022/08/20 12:37:50;;;;;;;6.93;2.35;;;27.30;77.30;;;;;;4997028;28;20053;-60
2022/08/20 12:40:22;;;;;;;7.85;2.13;;;27.30;77.50;;;;;;5014818;28;20076;-62
2022/08/20 12:42:48;;;;;;;4.40;1.90;;;27.30;77.80;;;;;;5014603;28;20438;-60
2022/08/20 12:45:15;;;;;;;6.57;2.15;;;27.20;76.90;;;;;;5013566;28;20045;-60
2022/08/20 12:47:42;;;;;;;7.05;2.33;;;27.40;77.30;;;;;;5014687;28;20100;-61
2022/08/20 12:50:18;;;;;;;8.63;2.05;;;27.50;76.90;;;;;;5014598;28;20084;-61
2022/08/20 12:52:44;;;;;;;8.43;2.22;;;27.70;76.70;;;;;;5014296;28;20049;-60